sensor_id;sensor_type;location;lat;lon;timestamp;temperature;humidity
4390;DHT22;2209;48.982;8.406;2022-08-04T00:02:21;29.60;65.90
4390;DHT22;2209;48.982;8.406;2022-08-04T00:04:52;29.60;65.90
4390;DHT22;2209;48.982;8.406;2022-08-04T00:07:25;29.50;66.20
4390;DHT22;2209;48.982;8.406;2022-08-04T00:09:57;29.50;66.30
4390;DHT22;2209;48.982;8.406;2022-08-04T00:12:25;29.50;66.20
4390;DHT22;2209;48.982;8.406;2022-08-04T00:14:54;29.50;66.00
4390;DHT22;2209;48.982;8.406;2022-08-04T00:17:29;29.50;65.70
4390;DHT22;2209;48.982;8.406;2022-08-04T00:20:00;29.50;65.90
4390;DHT22;2209;48.982;8.406;2022-08-04T00:22:27;29.50;66.00
4390;DHT22;2209;48.982;8.406;2022-08-04T00:24:49;29.40;65.90
4390;DHT22;2209;48.982;8.406;2022-08-04T00:27:12;29.40;66.30
4390;DHT22;2209;48.982;8.406;2022-08-04T00:29:37;29.40;66.30
4390;DHT22;2209;48.982;8.406;2022-08-04T00:32:01;29.40;66.20
4390;DHT22;2209;48.982;8.406;2022-08-04T00:34:26;29.40;66.30
4390;DHT22;2209;48.982;8.406;2022-08-04T00:36:49;29.40;66.30
4390;DHT22;2209;48.982;8.406;2022-08-04T00:39:15;29.30;65.80
4390;DHT22;2209;48.982;8.406;2022-08-04T00:41:46;29.30;65.50
4390;DHT22;2209;48.982;8.406;2022-08-04T00:44:20;29.30;64.10
4390;DHT22;2209;48.982;8.406;2022-08-04T00:47:04;29.10;63.80
4390;DHT22;2209;48.982;8.406;2022-08-04T00:49:59;29.10;63.90
4390;DHT22;2209;48.982;8.406;2022-08-04T00:52:34;29.10;64.80
4390;DHT22;2209;48.982;8.406;2022-08-04T00:55:28;29.10;65.30
4390;DHT22;2209;48.982;8.406;2022-08-04T00:58:05;29.20;65.80
4390;DHT22;2209;48.982;8.406;2022-08-04T01:00:43;29.20;65.70
4390;DHT22;2209;48.982;8.406;2022-08-04T01:03:11;29.20;65.60
4390;DHT22;2209;48.982;8.406;2022-08-04T01:05:48;29.20;65.80
4390;DHT22;2209;48.982;8.406;2022-08-04T01:08:39;29.20;66.10
4390;DHT22;2209;48.982;8.406;2022-08-04T01:11:15;29.20;66.20
4390;DHT22;2209;48.982;8.406;2022-08-04T01:13:58;29.20;66.40
4390;DHT22;2209;48.982;8.406;2022-08-04T01:16:24;29.20;67.20
4390;DHT22;2209;48.982;8.406;2022-08-04T01:18:55;29.20;67.20
4390;DHT22;2209;48.982;8.406;2022-08-04T01:21:40;29.20;66.50
4390;DHT22;2209;48.982;8.406;2022-08-04T01:24:28;29.10;66.30
4390;DHT22;2209;48.982;8.406;2022-08-04T01:27:01;29.10;66.70
4390;DHT22;2209;48.982;8.406;2022-08-04T01:29:29;29.10;66.80
4390;DHT22;2209;48.982;8.406;2022-08-04T01:32:01;29.10;66.90
4390;DHT22;2209;48.982;8.406;2022-08-04T01:34:29;29.10;67.00
4390;DHT22;2209;48.982;8.406;2022-08-04T01:36:58;29.10;67.00
4390;DHT22;2209;48.982;8.406;2022-08-04T01:39:20;29.10;67.10
4390;DHT22;2209;48.982;8.406;2022-08-04T01:42:01;29.00;67.00
4390;DHT22;2209;48.982;8.406;2022-08-04T01:44:28;29.00;67.10
4390;DHT22;2209;48.982;8.406;2022-08-04T01:46:52;29.00;67.20
4390;DHT22;2209;48.982;8.406;2022-08-04T01:49:15;29.00;67.30
4390;DHT22;2209;48.982;8.406;2022-08-04T01:51:38;29.00;67.40
4390;DHT22;2209;48.982;8.406;2022-08-04T01:54:01;28.90;67.50
4390;DHT22;2209;48.982;8.406;2022-08-04T01:56:26;28.90;67.40
4390;DHT22;2209;48.982;8.406;2022-08-04T01:58:56;28.90;66.70
4390;DHT22;2209;48.982;8.406;2022-08-04T02:01:23;28.90;65.80
4390;DHT22;2209;48.982;8.406;2022-08-04T02:03:45;29.00;65.30
4390;DHT22;2209;48.982;8.406;2022-08-04T02:06:17;29.00;65.20
4390;DHT22;2209;48.982;8.406;2022-08-04T02:08:50;29.00;65.30
4390;DHT22;2209;48.982;8.406;2022-08-04T02:11:20;28.90;66.10
4390;DHT22;2209;48.982;8.406;2022-08-04T02:13:50;29.00;67.00
4390;DHT22;2209;48.982;8.406;2022-08-04T02:16:20;28.90;67.40
4390;DHT22;2209;48.982;8.406;2022-08-04T02:18:56;28.90;67.50
4390;DHT22;2209;48.982;8.406;2022-08-04T02:21:24;28.90;67.60
4390;DHT22;2209;48.982;8.406;2022-08-04T02:24:00;28.90;67.70
4390;DHT22;2209;48.982;8.406;2022-08-04T02:26:26;28.80;67.90
4390;DHT22;2209;48.982;8.406;2022-08-04T02:28:55;28.80;68.10
4390;DHT22;2209;48.982;8.406;2022-08-04T02:31:27;28.80;68.30
4390;DHT22;2209;48.982;8.406;2022-08-04T02:34:05;28.80;68.40
4390;DHT22;2209;48.982;8.406;2022-08-04T02:36:31;28.70;68.30
4390;DHT22;2209;48.982;8.406;2022-08-04T02:39:04;28.70;68.40
4390;DHT22;2209;48.982;8.406;2022-08-04T02:41:28;28.70;68.60
4390;DHT22;2209;48.982;8.406;2022-08-04T02:43:54;28.60;68.50
4390;DHT22;2209;48.982;8.406;2022-08-04T02:46:18;28.60;68.60
4390;DHT22;2209;48.982;8.406;2022-08-04T02:48:57;28.60;68.60
4390;DHT22;2209;48.982;8.406;2022-08-04T02:51:22;28.60;68.60
4390;DHT22;2209;48.982;8.406;2022-08-04T02:53:46;28.60;68.70
4390;DHT22;2209;48.982;8.406;2022-08-04T02:56:18;28.50;68.70
4390;DHT22;2209;48.982;8.406;2022-08-04T02:58:41;28.50;68.90
4390;DHT22;2209;48.982;8.406;2022-08-04T03:01:07;28.50;68.90
4390;DHT22;2209;48.982;8.406;2022-08-04T03:03:37;28.50;68.90
4390;DHT22;2209;48.982;8.406;2022-08-04T03:06:39;28.40;68.90
4390;DHT22;2209;48.982;8.406;2022-08-04T03:09:23;28.40;69.00
4390;DHT22;2209;48.982;8.406;2022-08-04T03:12:29;28.40;69.10
4390;DHT22;2209;48.982;8.406;2022-08-04T03:15:15;28.30;69.30
4390;DHT22;2209;48.982;8.406;2022-08-04T03:18:17;28.30;69.40
4390;DHT22;2209;48.982;8.406;2022-08-04T03:21:04;28.30;69.60
4390;DHT22;2209;48.982;8.406;2022-08-04T03:24:14;28.30;69.60
4390;DHT22;2209;48.982;8.406;2022-08-04T03:27:01;28.30;69.60
4390;DHT22;2209;48.982;8.406;2022-08-04T03:32:58;28.20;69.70
4390;DHT22;2209;48.982;8.406;2022-08-04T03:35:42;28.20;69.70
4390;DHT22;2209;48.982;8.406;2022-08-04T03:39:06;28.10;69.60
4390;DHT22;2209;48.982;8.406;2022-08-04T03:47:52;28.10;69.70
4390;DHT22;2209;48.982;8.406;2022-08-04T03:50:47;28.10;69.70
4390;DHT22;2209;48.982;8.406;2022-08-04T03:53:43;28.10;69.70
4390;DHT22;2209;48.982;8.406;2022-08-04T03:56:26;28.00;69.70
4390;DHT22;2209;48.982;8.406;2022-08-04T03:59:05;28.00;69.90
4390;DHT22;2209;48.982;8.406;2022-08-04T04:01:59;27.90;69.90
4390;DHT22;2209;48.982;8.406;2022-08-04T04:04:45;27.90;70.10
4390;DHT22;2209;48.982;8.406;2022-08-04T04:10:29;27.90;70.60
4390;DHT22;2209;48.982;8.406;2022-08-04T04:13:13;27.80;70.60
4390;DHT22;2209;48.982;8.406;2022-08-04T04:15:50;27.80;70.80
4390;DHT22;2209;48.982;8.406;2022-08-04T04:18:30;27.80;70.80
4390;DHT22;2209;48.982;8.406;2022-08-04T04:21:16;27.80;70.80
4390;DHT22;2209;48.982;8.406;2022-08-04T04:24:00;27.80;70.90
4390;DHT22;2209;48.982;8.406;2022-08-04T04:26:36;27.80;71.00
4390;DHT22;2209;48.982;8.406;2022-08-04T04:29:17;27.80;71.00
4390;DHT22;2209;48.982;8.406;2022-08-04T04:31:52;27.70;70.90
4390;DHT22;2209;48.982;8.406;2022-08-04T04:34:25;27.70;70.70
4390;DHT22;2209;48.982;8.406;2022-08-04T04:37:07;27.80;70.50
4390;DHT22;2209;48.982;8.406;2022-08-04T04:39:47;27.70;70.50
4390;DHT22;2209;48.982;8.406;2022-08-04T04:42:37;27.70;70.80
4390;DHT22;2209;48.982;8.406;2022-08-04T04:45:23;27.70;71.10
4390;DHT22;2209;48.982;8.406;2022-08-04T04:47:55;27.60;71.30
4390;DHT22;2209;48.982;8.406;2022-08-04T04:50:25;27.60;71.50
4390;DHT22;2209;48.982;8.406;2022-08-04T04:52:54;27.60;71.90
4390;DHT22;2209;48.982;8.406;2022-08-04T04:55:24;27.60;71.80
4390;DHT22;2209;48.982;8.406;2022-08-04T04:57:51;27.60;72.00
4390;DHT22;2209;48.982;8.406;2022-08-04T05:00:17;27.60;72.00
4390;DHT22;2209;48.982;8.406;2022-08-04T05:05:59;27.60;72.10
4390;DHT22;2209;48.982;8.406;2022-08-04T05:08:48;27.60;71.20
4390;DHT22;2209;48.982;8.406;2022-08-04T05:11:30;27.60;70.50
4390;DHT22;2209;48.982;8.406;2022-08-04T05:13:58;27.60;70.40
4390;DHT22;2209;48.982;8.406;2022-08-04T05:16:31;27.60;70.50
4390;DHT22;2209;48.982;8.406;2022-08-04T05:19:01;27.60;70.80
4390;DHT22;2209;48.982;8.406;2022-08-04T05:21:34;27.60;71.20
4390;DHT22;2209;48.982;8.406;2022-08-04T05:24:01;27.60;71.50
4390;DHT22;2209;48.982;8.406;2022-08-04T05:26:30;27.60;71.60
4390;DHT22;2209;48.982;8.406;2022-08-04T05:28:58;27.60;71.80
4390;DHT22;2209;48.982;8.406;2022-08-04T05:31:28;27.60;71.70
4390;DHT22;2209;48.982;8.406;2022-08-04T05:33:56;27.60;71.20
4390;DHT22;2209;48.982;8.406;2022-08-04T05:36:22;27.60;71.00
4390;DHT22;2209;48.982;8.406;2022-08-04T05:38:49;27.60;71.00
4390;DHT22;2209;48.982;8.406;2022-08-04T05:41:13;27.60;70.70
4390;DHT22;2209;48.982;8.406;2022-08-04T05:43:41;27.50;70.30
4390;DHT22;2209;48.982;8.406;2022-08-04T05:46:04;27.50;70.20
4390;DHT22;2209;48.982;8.406;2022-08-04T05:48:29;27.50;70.00
4390;DHT22;2209;48.982;8.406;2022-08-04T05:50:54;27.60;70.10
4390;DHT22;2209;48.982;8.406;2022-08-04T05:53:20;27.50;70.10
4390;DHT22;2209;48.982;8.406;2022-08-04T05:55:44;27.50;70.30
4390;DHT22;2209;48.982;8.406;2022-08-04T05:58:08;27.50;71.00
4390;DHT22;2209;48.982;8.406;2022-08-04T06:00:32;27.60;70.10
4390;DHT22;2209;48.982;8.406;2022-08-04T06:02:56;27.50;69.90
4390;DHT22;2209;48.982;8.406;2022-08-04T06:05:21;27.50;69.70
4390;DHT22;2209;48.982;8.406;2022-08-04T06:07:44;27.60;69.80
4390;DHT22;2209;48.982;8.406;2022-08-04T06:10:07;27.60;69.90
4390;DHT22;2209;48.982;8.406;2022-08-04T06:12:35;27.50;69.90
4390;DHT22;2209;48.982;8.406;2022-08-04T06:14:59;27.50;70.00
4390;DHT22;2209;48.982;8.406;2022-08-04T06:17:26;27.60;70.10
4390;DHT22;2209;48.982;8.406;2022-08-04T06:19:51;27.50;70.20
4390;DHT22;2209;48.982;8.406;2022-08-04T06:22:16;27.50;70.30
4390;DHT22;2209;48.982;8.406;2022-08-04T06:24:40;27.50;70.30
4390;DHT22;2209;48.982;8.406;2022-08-04T06:27:03;27.50;70.00
4390;DHT22;2209;48.982;8.406;2022-08-04T06:29:27;27.50;69.70
4390;DHT22;2209;48.982;8.406;2022-08-04T06:31:56;27.50;69.60
4390;DHT22;2209;48.982;8.406;2022-08-04T06:34:24;27.50;69.60
4390;DHT22;2209;48.982;8.406;2022-08-04T06:36:47;27.50;69.60
4390;DHT22;2209;48.982;8.406;2022-08-04T06:39:12;27.50;69.60
4390;DHT22;2209;48.982;8.406;2022-08-04T06:41:35;27.50;69.60
4390;DHT22;2209;48.982;8.406;2022-08-04T06:44:00;27.50;69.70
4390;DHT22;2209;48.982;8.406;2022-08-04T06:46:25;27.50;69.90
4390;DHT22;2209;48.982;8.406;2022-08-04T06:48:50;27.50;70.00
4390;DHT22;2209;48.982;8.406;2022-08-04T06:51:13;27.50;70.00
4390;DHT22;2209;48.982;8.406;2022-08-04T06:53:39;27.50;70.10
4390;DHT22;2209;48.982;8.406;2022-08-04T06:56:07;27.50;70.10
4390;DHT22;2209;48.982;8.406;2022-08-04T06:58:30;27.50;70.00
4390;DHT22;2209;48.982;8.406;2022-08-04T07:00:54;27.50;69.90
4390;DHT22;2209;48.982;8.406;2022-08-04T07:03:21;27.50;69.90
4390;DHT22;2209;48.982;8.406;2022-08-04T07:05:46;27.60;69.90
4390;DHT22;2209;48.982;8.406;2022-08-04T07:08:12;27.60;69.90
4390;DHT22;2209;48.982;8.406;2022-08-04T07:10:37;27.60;70.00
4390;DHT22;2209;48.982;8.406;2022-08-04T07:13:01;27.50;70.10
4390;DHT22;2209;48.982;8.406;2022-08-04T07:15:25;27.60;70.40
4390;DHT22;2209;48.982;8.406;2022-08-04T07:17:48;27.50;70.50
4390;DHT22;2209;48.982;8.406;2022-08-04T07:20:12;27.60;70.70
4390;DHT22;2209;48.982;8.406;2022-08-04T07:22:35;27.60;70.60
4390;DHT22;2209;48.982;8.406;2022-08-04T07:24:58;27.60;70.50
4390;DHT22;2209;48.982;8.406;2022-08-04T07:27:20;27.60;70.60
4390;DHT22;2209;48.982;8.406;2022-08-04T07:29:44;27.60;70.70
4390;DHT22;2209;48.982;8.406;2022-08-04T07:32:10;27.60;70.80
4390;DHT22;2209;48.982;8.406;2022-08-04T07:34:34;27.60;70.80
4390;DHT22;2209;48.982;8.406;2022-08-04T07:36:58;27.60;70.80
4390;DHT22;2209;48.982;8.406;2022-08-04T07:39:22;27.60;70.90
4390;DHT22;2209;48.982;8.406;2022-08-04T07:41:45;27.60;71.10
4390;DHT22;2209;48.982;8.406;2022-08-04T07:44:09;27.60;71.20
4390;DHT22;2209;48.982;8.406;2022-08-04T07:46:34;27.60;71.20
4390;DHT22;2209;48.982;8.406;2022-08-04T07:48:56;27.60;71.20
4390;DHT22;2209;48.982;8.406;2022-08-04T07:51:20;27.60;71.10
4390;DHT22;2209;48.982;8.406;2022-08-04T07:53:43;27.60;71.20
4390;DHT22;2209;48.982;8.406;2022-08-04T07:56:07;27.60;71.40
4390;DHT22;2209;48.982;8.406;2022-08-04T07:58:29;27.60;71.50
4390;DHT22;2209;48.982;8.406;2022-08-04T08:00:52;27.60;71.30
4390;DHT22;2209;48.982;8.406;2022-08-04T08:03:16;27.60;71.60
4390;DHT22;2209;48.982;8.406;2022-08-04T08:05:40;27.60;71.40
4390;DHT22;2209;48.982;8.406;2022-08-04T08:08:03;27.60;71.70
4390;DHT22;2209;48.982;8.406;2022-08-04T08:10:25;27.70;70.00
4390;DHT22;2209;48.982;8.406;2022-08-04T08:12:48;27.70;67.60
4390;DHT22;2209;48.982;8.406;2022-08-04T08:15:11;27.70;68.10
4390;DHT22;2209;48.982;8.406;2022-08-04T08:17:33;27.70;67.70
4390;DHT22;2209;48.982;8.406;2022-08-04T08:19:57;27.70;67.60
4390;DHT22;2209;48.982;8.406;2022-08-04T08:22:19;27.70;66.90
4390;DHT22;2209;48.982;8.406;2022-08-04T08:24:41;27.70;66.90
4390;DHT22;2209;48.982;8.406;2022-08-04T08:27:06;27.80;66.60
4390;DHT22;2209;48.982;8.406;2022-08-04T08:29:28;27.80;66.30
4390;DHT22;2209;48.982;8.406;2022-08-04T08:31:51;27.90;66.70
4390;DHT22;2209;48.982;8.406;2022-08-04T08:34:14;27.90;66.70
4390;DHT22;2209;48.982;8.406;2022-08-04T08:36:40;27.80;66.50
4390;DHT22;2209;48.982;8.406;2022-08-04T08:39:09;27.80;67.40
4390;DHT22;2209;48.982;8.406;2022-08-04T08:45:23;27.80;67.10
4390;DHT22;2209;48.982;8.406;2022-08-04T08:48:07;27.80;67.30
4390;DHT22;2209;48.982;8.406;2022-08-04T08:50:48;27.80;67.30
4390;DHT22;2209;48.982;8.406;2022-08-04T08:53:30;27.90;67.10
4390;DHT22;2209;48.982;8.406;2022-08-04T08:56:10;27.90;66.90
4390;DHT22;2209;48.982;8.406;2022-08-04T08:58:47;28.00;66.50
4390;DHT22;2209;48.982;8.406;2022-08-04T09:01:33;28.00;66.30
4390;DHT22;2209;48.982;8.406;2022-08-04T09:04:25;28.00;66.40
4390;DHT22;2209;48.982;8.406;2022-08-04T09:07:05;28.00;66.40
4390;DHT22;2209;48.982;8.406;2022-08-04T09:09:54;28.10;66.20
4390;DHT22;2209;48.982;8.406;2022-08-04T09:12:28;28.10;66.00
4390;DHT22;2209;48.982;8.406;2022-08-04T09:14:59;28.10;65.90
4390;DHT22;2209;48.982;8.406;2022-08-04T09:17:31;28.10;65.90
4390;DHT22;2209;48.982;8.406;2022-08-04T09:20:00;28.10;66.00
4390;DHT22;2209;48.982;8.406;2022-08-04T09:22:31;28.10;66.10
4390;DHT22;2209;48.982;8.406;2022-08-04T09:25:02;28.00;66.20
4390;DHT22;2209;48.982;8.406;2022-08-04T09:27:38;28.10;66.20
4390;DHT22;2209;48.982;8.406;2022-08-04T09:30:05;28.10;66.00
4390;DHT22;2209;48.982;8.406;2022-08-04T09:32:33;28.00;65.80
4390;DHT22;2209;48.982;8.406;2022-08-04T09:35:05;28.00;65.70
4390;DHT22;2209;48.982;8.406;2022-08-04T09:37:37;28.10;65.60
4390;DHT22;2209;48.982;8.406;2022-08-04T09:40:09;28.10;65.60
4390;DHT22;2209;48.982;8.406;2022-08-04T09:42:40;28.10;65.30
4390;DHT22;2209;48.982;8.406;2022-08-04T09:45:11;28.10;65.30
4390;DHT22;2209;48.982;8.406;2022-08-04T09:47:38;28.10;65.50
4390;DHT22;2209;48.982;8.406;2022-08-04T09:50:14;28.20;65.60
4390;DHT22;2209;48.982;8.406;2022-08-04T09:52:43;28.20;65.50
4390;DHT22;2209;48.982;8.406;2022-08-04T09:55:15;28.20;65.20
4390;DHT22;2209;48.982;8.406;2022-08-04T09:57:50;28.20;65.30
4390;DHT22;2209;48.982;8.406;2022-08-04T10:00:15;28.30;65.80
4390;DHT22;2209;48.982;8.406;2022-08-04T10:02:44;28.30;65.00
4390;DHT22;2209;48.982;8.406;2022-08-04T10:05:11;28.40;63.20
4390;DHT22;2209;48.982;8.406;2022-08-04T10:07:47;28.50;63.50
4390;DHT22;2209;48.982;8.406;2022-08-04T10:10:25;28.50;63.40
4390;DHT22;2209;48.982;8.406;2022-08-04T10:13:13;28.50;63.50
4390;DHT22;2209;48.982;8.406;2022-08-04T10:15:51;28.50;63.60
4390;DHT22;2209;48.982;8.406;2022-08-04T10:18:25;28.50;63.80
4390;DHT22;2209;48.982;8.406;2022-08-04T10:20:57;28.50;63.90
4390;DHT22;2209;48.982;8.406;2022-08-04T10:23:33;28.50;64.00
4390;DHT22;2209;48.982;8.406;2022-08-04T10:26:05;28.40;63.80
4390;DHT22;2209;48.982;8.406;2022-08-04T10:28:40;28.50;63.50
4390;DHT22;2209;48.982;8.406;2022-08-04T10:31:09;28.50;62.90
4390;DHT22;2209;48.982;8.406;2022-08-04T10:33:43;28.60;63.00
4390;DHT22;2209;48.982;8.406;2022-08-04T10:36:08;28.80;62.70
4390;DHT22;2209;48.982;8.406;2022-08-04T10:38:36;28.80;62.20
4390;DHT22;2209;48.982;8.406;2022-08-04T10:41:10;28.80;62.40
4390;DHT22;2209;48.982;8.406;2022-08-04T10:43:42;28.70;62.70
4390;DHT22;2209;48.982;8.406;2022-08-04T10:46:11;28.70;62.80
4390;DHT22;2209;48.982;8.406;2022-08-04T10:48:41;28.70;62.80
4390;DHT22;2209;48.982;8.406;2022-08-04T10:51:10;28.70;63.00
4390;DHT22;2209;48.982;8.406;2022-08-04T10:53:37;28.80;62.30
4390;DHT22;2209;48.982;8.406;2022-08-04T10:56:10;28.80;62.40
4390;DHT22;2209;48.982;8.406;2022-08-04T10:58:39;28.80;62.30
4390;DHT22;2209;48.982;8.406;2022-08-04T11:01:11;28.80;62.30
4390;DHT22;2209;48.982;8.406;2022-08-04T11:03:40;28.80;63.10
4390;DHT22;2209;48.982;8.406;2022-08-04T11:06:05;28.90;63.20
4390;DHT22;2209;48.982;8.406;2022-08-04T11:08:32;28.90;63.30
4390;DHT22;2209;48.982;8.406;2022-08-04T11:11:04;29.00;61.80
4390;DHT22;2209;48.982;8.406;2022-08-04T11:13:32;29.10;61.20
4390;DHT22;2209;48.982;8.406;2022-08-04T11:15:56;29.10;61.10
4390;DHT22;2209;48.982;8.406;2022-08-04T11:18:25;29.10;61.20
4390;DHT22;2209;48.982;8.406;2022-08-04T11:20:58;29.10;61.60
4390;DHT22;2209;48.982;8.406;2022-08-04T11:23:28;29.30;59.40
4390;DHT22;2209;48.982;8.406;2022-08-04T11:25:58;29.30;59.20
4390;DHT22;2209;48.982;8.406;2022-08-04T11:28:32;29.50;58.90
4390;DHT22;2209;48.982;8.406;2022-08-04T11:31:02;29.60;58.50
4390;DHT22;2209;48.982;8.406;2022-08-04T11:33:33;29.50;58.00
4390;DHT22;2209;48.982;8.406;2022-08-04T11:36:01;29.40;57.50
4390;DHT22;2209;48.982;8.406;2022-08-04T11:38:31;29.40;57.80
4390;DHT22;2209;48.982;8.406;2022-08-04T11:40:57;29.30;57.70
4390;DHT22;2209;48.982;8.406;2022-08-04T11:43:24;29.30;57.10
4390;DHT22;2209;48.982;8.406;2022-08-04T11:45:53;29.30;56.70
4390;DHT22;2209;48.982;8.406;2022-08-04T11:48:21;29.30;56.20
4390;DHT22;2209;48.982;8.406;2022-08-04T11:50:49;29.40;58.10
4390;DHT22;2209;48.982;8.406;2022-08-04T11:53:15;29.40;57.20
4390;DHT22;2209;48.982;8.406;2022-08-04T11:55:39;29.50;56.00
4390;DHT22;2209;48.982;8.406;2022-08-04T11:58:02;29.50;56.30
4390;DHT22;2209;48.982;8.406;2022-08-04T12:00:28;29.50;57.50
4390;DHT22;2209;48.982;8.406;2022-08-04T12:03:11;29.80;56.60
4390;DHT22;2209;48.982;8.406;2022-08-04T12:05:42;29.90;56.50
4390;DHT22;2209;48.982;8.406;2022-08-04T12:08:25;29.90;56.00
4390;DHT22;2209;48.982;8.406;2022-08-04T12:11:00;30.00;54.70
4390;DHT22;2209;48.982;8.406;2022-08-04T12:13:30;30.00;53.90
4390;DHT22;2209;48.982;8.406;2022-08-04T12:16:02;30.10;53.90
4390;DHT22;2209;48.982;8.406;2022-08-04T12:18:33;30.10;52.80
4390;DHT22;2209;48.982;8.406;2022-08-04T12:21:00;30.30;52.90
4390;DHT22;2209;48.982;8.406;2022-08-04T12:23:28;30.40;52.80
4390;DHT22;2209;48.982;8.406;2022-08-04T12:25:53;30.60;52.20
4390;DHT22;2209;48.982;8.406;2022-08-04T12:28:23;30.60;52.40
4390;DHT22;2209;48.982;8.406;2022-08-04T12:30:51;30.50;52.70
4390;DHT22;2209;48.982;8.406;2022-08-04T12:33:20;30.40;52.50
4390;DHT22;2209;48.982;8.406;2022-08-04T12:35:52;30.30;52.60
4390;DHT22;2209;48.982;8.406;2022-08-04T12:38:18;30.30;52.00
4390;DHT22;2209;48.982;8.406;2022-08-04T12:40:45;30.50;50.90
4390;DHT22;2209;48.982;8.406;2022-08-04T12:43:10;30.90;50.90
4390;DHT22;2209;48.982;8.406;2022-08-04T12:45:34;31.30;50.10
4390;DHT22;2209;48.982;8.406;2022-08-04T12:47:58;31.70;50.20
4390;DHT22;2209;48.982;8.406;2022-08-04T12:50:22;32.00;50.20
4390;DHT22;2209;48.982;8.406;2022-08-04T12:52:48;32.00;49.70
4390;DHT22;2209;48.982;8.406;2022-08-04T12:55:13;31.90;49.70
4390;DHT22;2209;48.982;8.406;2022-08-04T12:57:36;31.90;49.10
4390;DHT22;2209;48.982;8.406;2022-08-04T12:59:59;31.90;49.10
4390;DHT22;2209;48.982;8.406;2022-08-04T13:02:25;31.70;49.30
4390;DHT22;2209;48.982;8.406;2022-08-04T13:04:48;31.70;48.90
4390;DHT22;2209;48.982;8.406;2022-08-04T13:07:17;31.80;49.60
4390;DHT22;2209;48.982;8.406;2022-08-04T13:09:42;31.70;50.00
4390;DHT22;2209;48.982;8.406;2022-08-04T13:12:13;31.60;50.00
4390;DHT22;2209;48.982;8.406;2022-08-04T13:14:37;31.50;50.30
4390;DHT22;2209;48.982;8.406;2022-08-04T13:17:04;31.30;50.80
4390;DHT22;2209;48.982;8.406;2022-08-04T13:19:29;31.40;50.10
4390;DHT22;2209;48.982;8.406;2022-08-04T13:21:52;31.50;49.40
4390;DHT22;2209;48.982;8.406;2022-08-04T13:24:18;31.50;50.00
4390;DHT22;2209;48.982;8.406;2022-08-04T13:26:52;31.50;50.00
4390;DHT22;2209;48.982;8.406;2022-08-04T13:29:14;31.50;50.50
4390;DHT22;2209;48.982;8.406;2022-08-04T13:31:42;31.40;50.00
4390;DHT22;2209;48.982;8.406;2022-08-04T13:34:07;31.40;49.60
4390;DHT22;2209;48.982;8.406;2022-08-04T13:36:31;31.40;49.70
4390;DHT22;2209;48.982;8.406;2022-08-04T13:38:56;31.40;50.40
4390;DHT22;2209;48.982;8.406;2022-08-04T13:41:19;31.40;50.70
4390;DHT22;2209;48.982;8.406;2022-08-04T13:43:45;31.40;50.50
4390;DHT22;2209;48.982;8.406;2022-08-04T13:46:15;31.50;50.90
4390;DHT22;2209;48.982;8.406;2022-08-04T13:48:41;31.60;50.30
4390;DHT22;2209;48.982;8.406;2022-08-04T13:51:07;31.70;50.30
4390;DHT22;2209;48.982;8.406;2022-08-04T13:53:31;31.70;50.50
4390;DHT22;2209;48.982;8.406;2022-08-04T13:55:56;31.80;50.30
4390;DHT22;2209;48.982;8.406;2022-08-04T13:58:22;31.90;48.40
4390;DHT22;2209;48.982;8.406;2022-08-04T14:00:50;31.90;48.70
4390;DHT22;2209;48.982;8.406;2022-08-04T14:03:23;32.00;49.10
4390;DHT22;2209;48.982;8.406;2022-08-04T14:06:06;32.10;47.50
4390;DHT22;2209;48.982;8.406;2022-08-04T14:08:29;32.10;46.70
4390;DHT22;2209;48.982;8.406;2022-08-04T14:10:56;32.30;46.30
4390;DHT22;2209;48.982;8.406;2022-08-04T14:13:28;32.60;45.00
4390;DHT22;2209;48.982;8.406;2022-08-04T14:15:53;32.90;44.20
4390;DHT22;2209;48.982;8.406;2022-08-04T14:18:23;33.10;43.60
4390;DHT22;2209;48.982;8.406;2022-08-04T14:21:06;33.20;42.90
4390;DHT22;2209;48.982;8.406;2022-08-04T14:23:38;33.10;43.50
4390;DHT22;2209;48.982;8.406;2022-08-04T14:26:16;32.90;43.70
4390;DHT22;2209;48.982;8.406;2022-08-04T14:28:38;32.90;44.80
4390;DHT22;2209;48.982;8.406;2022-08-04T14:31:09;32.80;43.60
4390;DHT22;2209;48.982;8.406;2022-08-04T14:33:36;32.70;43.70
4390;DHT22;2209;48.982;8.406;2022-08-04T14:36:08;32.90;43.10
4390;DHT22;2209;48.982;8.406;2022-08-04T14:38:45;32.90;42.20
4390;DHT22;2209;48.982;8.406;2022-08-04T14:41:08;33.20;41.70
4390;DHT22;2209;48.982;8.406;2022-08-04T14:43:30;33.40;41.20
4390;DHT22;2209;48.982;8.406;2022-08-04T14:46:03;33.40;41.60
4390;DHT22;2209;48.982;8.406;2022-08-04T14:48:26;33.50;41.20
4390;DHT22;2209;48.982;8.406;2022-08-04T14:50:49;33.50;41.80
4390;DHT22;2209;48.982;8.406;2022-08-04T14:53:14;33.40;41.70
4390;DHT22;2209;48.982;8.406;2022-08-04T14:55:38;33.30;42.20
4390;DHT22;2209;48.982;8.406;2022-08-04T14:58:03;33.20;41.90
4390;DHT22;2209;48.982;8.406;2022-08-04T15:00:28;33.10;42.30
4390;DHT22;2209;48.982;8.406;2022-08-04T15:02:51;33.00;42.50
4390;DHT22;2209;48.982;8.406;2022-08-04T15:05:20;33.10;42.90
4390;DHT22;2209;48.982;8.406;2022-08-04T15:07:45;33.10;42.50
4390;DHT22;2209;48.982;8.406;2022-08-04T15:10:08;33.10;42.60
4390;DHT22;2209;48.982;8.406;2022-08-04T15:12:30;33.10;42.00
4390;DHT22;2209;48.982;8.406;2022-08-04T15:14:52;33.20;42.40
4390;DHT22;2209;48.982;8.406;2022-08-04T15:17:15;33.20;42.30
4390;DHT22;2209;48.982;8.406;2022-08-04T15:19:37;33.40;40.20
4390;DHT22;2209;48.982;8.406;2022-08-04T15:22:03;33.40;39.60
4390;DHT22;2209;48.982;8.406;2022-08-04T15:24:27;33.60;40.00
4390;DHT22;2209;48.982;8.406;2022-08-04T15:26:51;33.60;39.50
4390;DHT22;2209;48.982;8.406;2022-08-04T15:29:25;33.60;38.10
4390;DHT22;2209;48.982;8.406;2022-08-04T15:31:49;33.60;37.60
4390;DHT22;2209;48.982;8.406;2022-08-04T15:34:14;33.60;38.10
4390;DHT22;2209;48.982;8.406;2022-08-04T15:36:43;33.70;37.80
4390;DHT22;2209;48.982;8.406;2022-08-04T15:39:21;33.80;37.80
4390;DHT22;2209;48.982;8.406;2022-08-04T15:41:55;33.80;38.80
4390;DHT22;2209;48.982;8.406;2022-08-04T15:44:48;33.80;38.10
4390;DHT22;2209;48.982;8.406;2022-08-04T15:47:14;33.80;38.80
4390;DHT22;2209;48.982;8.406;2022-08-04T15:49:38;33.80;39.00
4390;DHT22;2209;48.982;8.406;2022-08-04T15:52:04;33.80;39.40
4390;DHT22;2209;48.982;8.406;2022-08-04T15:54:29;33.80;38.80
4390;DHT22;2209;48.982;8.406;2022-08-04T15:56:51;33.80;38.90
4390;DHT22;2209;48.982;8.406;2022-08-04T15:59:14;33.80;39.40
4390;DHT22;2209;48.982;8.406;2022-08-04T16:01:36;33.80;39.80
4390;DHT22;2209;48.982;8.406;2022-08-04T16:03:59;33.90;39.30
4390;DHT22;2209;48.982;8.406;2022-08-04T16:09:23;33.90;39.50
4390;DHT22;2209;48.982;8.406;2022-08-04T16:11:49;34.00;38.80
4390;DHT22;2209;48.982;8.406;2022-08-04T16:14:12;34.00;37.30
4390;DHT22;2209;48.982;8.406;2022-08-04T16:16:45;34.00;36.30
4390;DHT22;2209;48.982;8.406;2022-08-04T16:19:10;34.10;37.60
4390;DHT22;2209;48.982;8.406;2022-08-04T16:21:46;34.20;38.60
4390;DHT22;2209;48.982;8.406;2022-08-04T16:24:17;34.20;38.70
4390;DHT22;2209;48.982;8.406;2022-08-04T16:26:49;34.30;38.50
4390;DHT22;2209;48.982;8.406;2022-08-04T16:29:25;34.30;38.50
4390;DHT22;2209;48.982;8.406;2022-08-04T16:32:09;34.30;38.70
4390;DHT22;2209;48.982;8.406;2022-08-04T16:34:32;34.30;39.70
4390;DHT22;2209;48.982;8.406;2022-08-04T16:36:59;34.30;40.10
4390;DHT22;2209;48.982;8.406;2022-08-04T16:39:26;34.30;40.00
4390;DHT22;2209;48.982;8.406;2022-08-04T16:41:56;34.30;40.00
4390;DHT22;2209;48.982;8.406;2022-08-04T16:44:28;34.30;39.60